Time;durP1;ratioP1;P1;durP2;ratioP2;P2;SDS_P1;SDS_P2;PMS_P1;PMS_P2;Temp;Humidity;BMP_temperature;BMP_pressure;BME280_temperature;BME280_humidity;BME280_pressure;Samples;Min_cycle;Max_cycle;Signal;HPM_P1;HPM_P2
2022/06/14 00:00:54;;;;;;;5.85;1.60;;;13.30;99.90;;;;;;5072839;27;20059;-84
2022/06/14 00:03:27;;;;;;;4.85;1.33;;;13.40;99.90;;;;;;5091972;27;20157;-84
2022/06/14 00:05:54;;;;;;;4.10;1.17;;;13.30;99.90;;;;;;5092517;27;20864;-83
2022/06/14 00:08:21;;;;;;;6.00;1.60;;;13.30;99.90;;;;;;5075947;27;20043;-83
2022/06/14 00:10:48;;;;;;;5.10;1.55;;;13.30;99.90;;;;;;5088083;27;20055;-83
2022/06/14 00:13:15;;;;;;;3.63;1.10;;;13.30;99.90;;;;;;5109035;27;20056;-84
2022/06/14 00:15:42;;;;;;;5.35;1.30;;;13.20;99.90;;;;;;5091798;27;20130;-84
2022/06/14 00:18:09;;;;;;;9.70;2.00;;;13.20;99.90;;;;;;5076096;27;20059;-83
2022/06/14 00:20:35;;;;;;;4.00;1.42;;;13.20;99.90;;;;;;5090928;27;20509;-83
2022/06/14 00:23:01;;;;;;;5.75;1.20;;;13.20;99.90;;;;;;5092743;27;20104;-84
2022/06/14 00:25:36;;;;;;;5.18;1.42;;;13.20;99.90;;;;;;5092615;27;20051;-83
2022/06/14 00:28:07;;;;;;;5.63;1.50;;;13.20;99.90;;;;;;5087826;27;20392;-84
2022/06/14 00:30:33;;;;;;;4.50;1.30;;;13.20;99.90;;;;;;5071173;27;20047;-83
2022/06/14 00:32:59;;;;;;;4.88;1.45;;;13.20;99.90;;;;;;5088241;27;20079;-83
2022/06/14 00:35:26;;;;;;;3.10;1.23;;;13.20;99.90;;;;;;5094244;27;20047;-84
2022/06/14 00:37:52;;;;;;;6.43;1.50;;;13.20;99.90;;;;;;5102760;27;20115;-83
2022/06/14 00:40:22;;;;;;;4.22;1.15;;;13.30;99.90;;;;;;5108904;27;20493;-84
2022/06/14 00:42:48;;;;;;;3.58;1.25;;;13.30;99.90;;;;;;5089761;27;20054;-84
2022/06/14 00:45:14;;;;;;;4.88;1.65;;;13.30;99.90;;;;;;5088743;27;20416;-84
2022/06/14 00:47:49;;;;;;;5.85;1.58;;;13.30;99.90;;;;;;5091866;27;20047;-84
2022/06/14 00:50:26;;;;;;;3.65;1.50;;;13.30;99.90;;;;;;5108194;27;20079;-84
2022/06/14 00:53:05;;;;;;;5.43;1.30;;;13.30;99.90;;;;;;5107813;27;20046;-83
2022/06/14 00:55:38;;;;;;;4.75;1.25;;;13.30;99.90;;;;;;5093367;27;20047;-83
2022/06/14 00:58:14;;;;;;;5.07;1.50;;;13.30;99.90;;;;;;5107504;27;20043;-84
2022/06/14 01:01:00;;;;;;;5.65;1.50;;;13.30;99.90;;;;;;5088308;27;20051;-83
2022/06/14 01:03:32;;;;;;;3.83;1.70;;;13.30;99.90;;;;;;5088611;27;20043;-84
2022/06/14 01:06:10;;;;;;;7.38;1.60;;;13.30;99.90;;;;;;5102328;27;20046;-84
2022/06/14 01:08:48;;;;;;;3.65;1.20;;;13.30;99.90;;;;;;5091999;27;20062;-84
2022/06/14 01:11:22;;;;;;;4.93;1.20;;;13.30;99.90;;;;;;5091102;27;20059;-84
2022/06/14 01:13:48;;;;;;;4.85;1.42;;;13.30;99.90;;;;;;5107884;27;20104;-83
2022/06/14 01:16:15;;;;;;;6.25;1.63;;;13.30;99.90;;;;;;5093051;27;20085;-84
2022/06/14 01:18:41;;;;;;;7.10;1.40;;;13.30;99.90;;;;;;5074885;27;20042;-84
2022/06/14 01:21:06;;;;;;;4.10;1.30;;;13.40;99.90;;;;;;5090823;27;20042;-83
2022/06/14 01:23:33;;;;;;;5.57;1.33;;;13.40;99.90;;;;;;5092033;27;20063;-83
2022/06/14 01:26:16;;;;;;;4.97;1.52;;;13.40;99.90;;;;;;5092335;27;20050;-84
2022/06/14 01:28:45;;;;;;;4.38;1.20;;;13.40;99.90;;;;;;5107231;27;20080;-84
2022/06/14 01:31:12;;;;;;;4.07;1.40;;;13.40;99.90;;;;;;5109286;27;20043;-83
2022/06/14 01:33:47;;;;;;;7.13;1.50;;;13.50;99.90;;;;;;5108512;27;20062;-84
2022/06/14 01:36:27;;;;;;;5.85;1.85;;;13.50;99.90;;;;;;5091592;27;20043;-84
2022/06/14 01:38:54;;;;;;;6.60;1.40;;;13.50;99.90;;;;;;5104415;27;20037;-83
2022/06/14 01:41:46;;;;;;;4.63;1.52;;;13.50;99.90;;;;;;5069159;27;20469;-84
2022/06/14 01:44:46;;;;;;;5.32;1.63;;;13.50;99.90;;;;;;5090603;27;20509;-82
2022/06/14 01:47:30;;;;;;;5.03;1.27;;;13.50;99.90;;;;;;5115302;27;20051;-82
2022/06/14 01:53:35;;;;;;;6.28;1.30;;;13.60;99.90;;;;;;5106230;27;20095;-82
2022/06/14 01:56:25;;;;;;;5.72;1.48;;;13.50;99.90;;;;;;5091388;27;20050;-82
2022/06/14 01:59:00;;;;;;;4.95;1.52;;;13.50;99.90;;;;;;5083919;27;20145;-82
2022/06/14 02:01:37;;;;;;;4.45;1.58;;;13.50;99.90;;;;;;5091173;27;20080;-82
2022/06/14 02:07:39;;;;;;;3.97;1.40;;;13.50;99.90;;;;;;5106726;27;20465;-81
2022/06/14 02:10:46;;;;;;;3.85;1.52;;;13.50;99.90;;;;;;5086720;27;20043;-82
2022/06/14 02:13:32;;;;;;;7.73;1.53;;;13.50;99.90;;;;;;5077699;27;20051;-82
2022/06/14 02:16:08;;;;;;;4.80;1.45;;;13.50;99.90;;;;;;5084961;27;20055;-83
2022/06/14 02:18:44;;;;;;;5.47;1.90;;;13.40;99.90;;;;;;5107001;27;20435;-83
2022/06/14 02:21:28;;;;;;;5.43;1.70;;;13.40;99.90;;;;;;5089359;27;20503;-83
2022/06/14 02:24:23;;;;;;;4.85;1.40;;;13.40;99.90;;;;;;5087962;27;20051;-82
2022/06/14 02:27:21;;;;;;;6.00;1.65;;;13.40;99.90;;;;;;5077934;27;20051;-82
2022/06/14 02:29:56;;;;;;;3.85;1.60;;;13.30;99.90;;;;;;5052015;27;20130;-82
2022/06/14 02:32:36;;;;;;;4.10;1.13;;;13.30;99.90;;;;;;5086832;27;20104;-82
2022/06/14 02:35:31;;;;;;;7.88;1.60;;;13.30;99.90;;;;;;5103611;27;20076;-82
2022/06/14 02:38:05;;;;;;;4.40;1.40;;;13.30;99.90;;;;;;5086154;27;20059;-83
2022/06/14 02:40:40;;;;;;;4.28;1.30;;;13.30;99.90;;;;;;5085867;27;20103;-83
2022/06/14 02:43:25;;;;;;;6.38;1.77;;;13.30;99.90;;;;;;5087284;28;20402;-82
2022/06/14 02:46:00;;;;;;;4.47;1.30;;;13.30;99.90;;;;;;5084801;28;20080;-83
2022/06/14 02:48:36;;;;;;;8.40;1.77;;;13.30;99.90;;;;;;5085377;28;20047;-82
2022/06/14 02:51:17;;;;;;;;;;;13.20;99.90;;;;;;5089762;28;20047;-83
2022/06/14 02:53:45;;;;;;;6.03;1.50;;;13.20;99.90;;;;;;5105232;28;20535;-82
2022/06/14 02:56:17;;;;;;;2.42;1.27;;;13.20;99.90;;;;;;5105788;28;20070;-82
2022/06/14 02:58:53;;;;;;;7.43;1.63;;;13.20;99.90;;;;;;5087349;28;20066;-83
2022/06/14 03:01:29;;;;;;;3.47;1.52;;;13.20;99.90;;;;;;5088190;28;20047;-82
2022/06/14 03:04:15;;;;;;;;;;;13.10;99.90;;;;;;5107003;28;20075;-82
2022/06/14 03:07:23;;;;;;;4.75;1.40;;;13.10;99.90;;;;;;5088588;28;20003;-82
2022/06/14 03:09:49;;;;;;;4.45;1.35;;;13.00;99.90;;;;;;5101515;28;20043;-82
2022/06/14 03:12:27;;;;;;;3.58;1.23;;;13.10;99.90;;;;;;5084487;28;20051;-82
2022/06/14 03:14:52;;;;;;;6.60;1.67;;;13.10;99.90;;;;;;5090071;28;20039;-83
2022/06/14 03:17:33;;;;;;;5.60;1.58;;;13.00;99.90;;;;;;5089461;28;20514;-82
2022/06/14 03:20:12;;;;;;;6.10;1.20;;;13.10;99.90;;;;;;5123948;27;20047;-83
2022/06/14 03:23:01;;;;;;;7.32;1.45;;;13.00;99.90;;;;;;5095042;27;20078;-82
2022/06/14 03:25:40;;;;;;;4.28;1.33;;;13.00;99.90;;;;;;5096286;27;20035;-82
2022/06/14 03:28:14;;;;;;;3.08;0.93;;;13.00;99.90;;;;;;5105583;27;20428;-82
2022/06/14 03:30:49;;;;;;;3.95;1.60;;;13.00;99.90;;;;;;5092399;27;20043;-82
2022/06/14 03:33:25;;;;;;;4.78;1.20;;;13.00;99.90;;;;;;5111516;27;20043;-83
2022/06/14 03:35:53;;;;;;;6.22;1.42;;;12.90;99.90;;;;;;5108907;27;20511;-82
2022/06/14 03:38:44;;;;;;;7.28;1.33;;;12.90;99.90;;;;;;5095664;27;20057;-83
2022/06/14 03:41:13;;;;;;;3.50;1.10;;;12.90;99.90;;;;;;5094309;27;20046;-83
2022/06/14 03:43:40;;;;;;;3.72;1.40;;;12.90;99.90;;;;;;5090829;27;20120;-83
2022/06/14 03:46:21;;;;;;;5.95;1.38;;;12.90;99.90;;;;;;5076118;27;20055;-83
2022/06/14 03:48:54;;;;;;;4.43;1.38;;;12.90;99.90;;;;;;5091763;27;20586;-82
2022/06/14 03:51:25;;;;;;;4.93;1.20;;;12.90;99.90;;;;;;5092611;27;20050;-83
2022/06/14 03:54:16;;;;;;;4.72;1.38;;;12.90;99.90;;;;;;5093906;27;20054;-82
2022/06/14 03:56:54;;;;;;;2.92;0.85;;;12.90;99.90;;;;;;5108909;27;20050;-83
2022/06/14 03:59:29;;;;;;;2.75;1.08;;;12.90;99.90;;;;;;5093804;27;20062;-82
2022/06/14 04:02:04;;;;;;;5.32;1.40;;;12.90;99.90;;;;;;5086128;27;20040;-83
2022/06/14 04:04:53;;;;;;;3.05;1.20;;;13.00;99.90;;;;;;5108469;27;20062;-82
2022/06/14 04:07:35;;;;;;;4.20;1.20;;;13.00;99.90;;;;;;5108153;27;20054;-82
2022/06/14 04:10:15;;;;;;;2.83;1.08;;;13.00;99.90;;;;;;5087305;27;20446;-82
2022/06/14 04:12:57;;;;;;;2.63;1.20;;;13.00;99.90;;;;;;5092290;27;20047;-81
2022/06/14 04:15:51;;;;;;;4.07;1.13;;;13.10;99.90;;;;;;5091890;27;20039;-82
2022/06/14 04:18:35;;;;;;;3.25;1.08;;;13.10;99.90;;;;;;5108913;27;20043;-82
2022/06/14 04:21:25;;;;;;;4.63;1.02;;;13.20;99.90;;;;;;5090883;27;20801;-82
2022/06/14 04:23:57;;;;;;;2.20;1.10;;;13.20;99.90;;;;;;5086969;27;20153;-82
2022/06/14 04:26:23;;;;;;;2.30;0.90;;;13.20;99.90;;;;;;5106126;27;20047;-82
2022/06/14 04:29:09;;;;;;;3.60;1.20;;;13.30;99.90;;;;;;5108898;27;20051;-82
2022/06/14 04:32:12;;;;;;;2.92;1.30;;;13.30;99.90;;;;;;5092045;27;20043;-83
2022/06/14 04:34:57;;;;;;;4.93;1.20;;;13.40;99.90;;;;;;5102771;27;20056;-83
2022/06/14 04:37:55;;;;;;;2.58;1.20;;;13.40;99.90;;;;;;5125673;27;20047;-83
2022/06/14 04:40:35;;;;;;;3.38;1.20;;;13.30;99.90;;;;;;5063465;27;20090;-83
2022/06/14 04:43:06;;;;;;;3.85;1.17;;;13.60;99.90;;;;;;5086981;27;20047;-83
2022/06/14 04:45:56;;;;;;;2.47;1.10;;;13.60;99.90;;;;;;5108998;27;20088;-83
2022/06/14 04:48:40;;;;;;;4.10;1.27;;;13.70;99.90;;;;;;5085727;27;20144;-83
2022/06/14 04:51:26;;;;;;;3.72;1.30;;;13.70;99.90;;;;;;5089554;27;20262;-82
2022/06/14 04:54:12;;;;;;;3.45;1.17;;;13.80;99.90;;;;;;5085896;27;20078;-82
2022/06/14 04:56:49;;;;;;;4.63;1.20;;;13.90;99.90;;;;;;5089301;27;20043;-83
2022/06/14 04:59:20;;;;;;;3.97;1.33;;;13.90;99.90;;;;;;5109001;27;20043;-83
2022/06/14 05:01:54;;;;;;;4.07;1.60;;;14.00;99.90;;;;;;5091246;27;20122;-83
2022/06/14 05:04:25;;;;;;;4.00;1.45;;;14.10;99.90;;;;;;5084688;27;20047;-82
2022/06/14 05:07:00;;;;;;;4.00;1.52;;;14.10;99.90;;;;;;5089675;27;20047;-83
2022/06/14 05:09:38;;;;;;;3.35;1.30;;;14.10;99.90;;;;;;5110456;27;20169;-82
2022/06/14 05:12:29;;;;;;;4.32;1.30;;;14.10;99.90;;;;;;5102330;27;20051;-83
2022/06/14 05:15:05;;;;;;;4.18;1.30;;;14.20;99.90;;;;;;5100203;27;20069;-83
2022/06/14 05:17:33;;;;;;;;;;;14.20;99.90;;;;;;5106393;27;20384;-83
2022/06/14 05:20:12;;;;;;;4.60;1.45;;;14.20;99.90;;;;;;5089495;27;19962;-84
2022/06/14 05:22:47;;;;;;;4.20;1.33;;;14.30;99.90;;;;;;5090835;27;20042;-84
2022/06/14 05:25:14;;;;;;;2.88;1.15;;;14.50;99.90;;;;;;5090305;27;20039;-83
2022/06/14 05:27:46;;;;;;;3.83;1.27;;;14.50;99.90;;;;;;5057854;27;20054;-83
2022/06/14 05:30:21;;;;;;;4.97;1.40;;;14.60;99.90;;;;;;5089487;27;20039;-83
2022/06/14 05:33:09;;;;;;;3.00;1.33;;;14.60;99.90;;;;;;5086262;27;20119;-82
2022/06/14 05:35:44;;;;;;;3.85;1.73;;;14.70;99.90;;;;;;5088032;27;20050;-82
2022/06/14 05:38:35;;;;;;;3.58;1.30;;;14.80;99.90;;;;;;5084546;27;20051;-84
2022/06/14 05:41:16;;;;;;;2.90;1.40;;;14.80;99.90;;;;;;5107472;27;20043;-83
2022/06/14 05:44:08;;;;;;;3.30;1.60;;;14.90;99.90;;;;;;5090197;28;20050;-84
2022/06/14 05:46:45;;;;;;;4.60;1.60;;;15.00;99.90;;;;;;5107143;27;20058;-84
2022/06/14 05:49:22;;;;;;;3.13;1.17;;;15.10;99.90;;;;;;5107219;27;20389;-83
2022/06/14 05:51:50;;;;;;;3.53;1.35;;;15.20;99.90;;;;;;5106902;27;20092;-83
2022/06/14 05:55:11;;;;;;;5.20;1.40;;;15.30;99.90;;;;;;5107222;27;20058;-83
2022/06/14 05:57:58;;;;;;;3.67;1.50;;;15.30;99.90;;;;;;5064268;27;20051;-84
2022/06/14 06:00:44;;;;;;;4.18;1.38;;;15.40;99.90;;;;;;5086789;27;20112;-83
2022/06/14 06:03:27;;;;;;;3.90;1.52;;;15.50;99.90;;;;;;5088920;27;20594;-84
2022/06/14 06:06:29;;;;;;;4.45;1.58;;;15.50;99.90;;;;;;5107131;27;20042;-84
2022/06/14 06:09:08;;;;;;;5.03;1.50;;;15.50;99.90;;;;;;5085934;27;20055;-83
2022/06/14 06:11:40;;;;;;;5.00;1.30;;;15.50;99.90;;;;;;5085065;27;20460;-84
2022/06/14 06:14:12;;;;;;;5.22;1.30;;;15.60;99.90;;;;;;5107700;27;20035;-86
2022/06/14 06:16:56;;;;;;;4.00;1.50;;;15.70;99.90;;;;;;5089750;27;20055;-82
2022/06/14 06:19:30;;;;;;;3.63;1.40;;;15.80;99.90;;;;;;5087375;27;20518;-82
2022/06/14 06:22:03;;;;;;;5.72;1.25;;;15.80;99.90;;;;;;5087490;27;20136;-83
2022/06/14 06:24:36;;;;;;;3.42;1.25;;;15.90;99.90;;;;;;5083305;27;20148;-82
2022/06/14 06:27:08;;;;;;;4.68;1.40;;;16.00;99.90;;;;;;5081607;27;20046;-82
2022/06/14 06:29:38;;;;;;;5.13;1.30;;;16.00;99.90;;;;;;5105694;27;20062;-86
2022/06/14 06:32:05;;;;;;;2.88;1.20;;;16.10;99.90;;;;;;5088528;27;20134;-86
2022/06/14 06:34:31;;;;;;;3.40;1.23;;;16.10;99.90;;;;;;5081090;27;20441;-86
2022/06/14 06:37:03;;;;;;;4.80;1.20;;;16.20;99.90;;;;;;5072655;27;20047;-86
2022/06/14 06:39:38;;;;;;;5.43;1.38;;;16.30;99.90;;;;;;5083824;27;20042;-86
2022/06/14 06:42:34;;;;;;;3.40;1.20;;;16.40;99.90;;;;;;5082862;28;20470;-83
2022/06/14 06:45:12;;;;;;;3.85;1.17;;;16.50;99.90;;;;;;5080304;28;20073;-82
2022/06/14 06:47:37;;;;;;;2.30;1.10;;;16.60;99.90;;;;;;5103803;28;20056;-82
2022/06/14 06:50:41;;;;;;;4.18;1.40;;;16.70;99.90;;;;;;5103345;28;20047;-83
2022/06/14 06:53:14;;;;;;;7.20;1.30;;;16.80;99.90;;;;;;5085270;28;20499;-83
2022/06/14 06:55:55;;;;;;;5.40;1.60;;;16.90;99.90;;;;;;5101815;28;20042;-84
2022/06/14 06:58:20;;;;;;;3.05;1.33;;;17.10;99.90;;;;;;5084963;28;20058;-84
2022/06/14 07:00:54;;;;;;;4.55;1.60;;;17.10;99.90;;;;;;5086754;28;20047;-93
2022/06/14 07:03:44;;;;;;;4.45;1.27;;;17.20;99.90;;;;;;5081453;28;20136;-90
2022/06/14 07:06:25;;;;;;;3.63;1.63;;;17.30;99.90;;;;;;5108488;28;20051;-85
2022/06/14 07:08:56;;;;;;;3.92;1.13;;;17.40;99.90;;;;;;5091892;28;20047;-88
2022/06/14 07:11:28;;;;;;;3.72;1.35;;;17.40;99.90;;;;;;5086929;28;20044;-85
2022/06/14 07:13:58;;;;;;;2.88;1.08;;;16.90;99.90;;;;;;5106436;28;20052;-86
2022/06/14 07:16:30;;;;;;;3.38;1.25;;;17.70;99.90;;;;;;5081961;28;20126;-86
2022/06/14 07:19:40;;;;;;;4.00;1.17;;;17.80;99.90;;;;;;5085201;28;20062;-85
2022/06/14 07:22:21;;;;;;;3.72;1.30;;;17.90;99.90;;;;;;5078566;28;20047;-87
2022/06/14 07:25:00;;;;;;;2.92;1.25;;;17.90;99.90;;;;;;5081044;28;20035;-86
2022/06/14 07:27:34;;;;;;;3.13;1.20;;;18.00;99.90;;;;;;5101991;28;20048;-87
2022/06/14 07:30:08;;;;;;;3.30;1.00;;;18.10;99.90;;;;;;5124576;28;20063;-87
2022/06/14 07:32:50;;;;;;;2.95;0.95;;;18.20;99.90;;;;;;5089174;28;20046;-89
2022/06/14 07:35:35;;;;;;;3.95;1.25;;;18.40;99.90;;;;;;5101562;28;20046;-89
2022/06/14 07:38:10;;;;;;;2.95;1.02;;;18.50;99.90;;;;;;5086701;28;20495;-87
2022/06/14 07:40:45;;;;;;;3.97;1.13;;;18.60;99.90;;;;;;5082039;28;20052;-87
2022/06/14 07:43:35;;;;;;;2.10;1.00;;;18.80;99.90;;;;;;5082453;28;20052;-88
2022/06/14 07:46:08;;;;;;;4.30;1.45;;;18.90;99.90;;;;;;5098297;28;20059;-86
2022/06/14 07:48:45;;;;;;;3.50;1.35;;;18.90;99.90;;;;;;5085432;28;20410;-88
2022/06/14 07:51:39;;;;;;;2.47;1.27;;;19.10;99.90;;;;;;5104839;28;20057;-89
2022/06/14 07:54:22;;;;;;;2.90;1.10;;;19.20;99.90;;;;;;5103330;28;20052;-84
2022/06/14 07:57:20;;;;;;;6.65;1.45;;;19.40;99.90;;;;;;5084506;28;20043;-85
2022/06/14 08:04:03;;;;;;;1.80;1.10;;;19.30;99.90;;;;;;5052406;28;20048;-90
2022/06/14 08:10:29;;;;;;;;;;;;;;;;;;;;;
2022/06/14 08:13:39;;;;;;;4.05;1.10;;;18.90;99.90;;;;;;4987861;28;20050;-85
2022/06/14 08:16:10;;;;;;;3.78;1.10;;;19.90;99.90;;;;;;5055093;28;20041;-85
2022/06/14 08:19:08;;;;;;;2.88;1.20;;;19.30;99.90;;;;;;5066654;28;20044;-91
2022/06/14 08:21:49;;;;;;;4.78;1.30;;;19.30;99.90;;;;;;5053967;28;20671;-90
2022/06/14 08:24:22;;;;;;;3.05;1.10;;;19.30;99.90;;;;;;5066107;28;20048;-85
2022/06/14 08:27:03;;;;;;;4.40;1.20;;;19.00;99.90;;;;;;5063687;28;20413;-89
2022/06/14 08:29:34;;;;;;;3.40;1.30;;;19.30;99.90;;;;;;5053556;28;20071;-87
2022/06/14 08:32:22;;;;;;;2.78;1.13;;;19.30;99.90;;;;;;5068519;28;20382;-87
2022/06/14 08:35:04;;;;;;;5.72;1.95;;;19.50;99.90;;;;;;5050664;28;20090;-88
2022/06/14 08:37:42;;;;;;;4.50;1.50;;;19.60;99.90;;;;;;5070693;28;20047;-88
2022/06/14 08:40:32;;;;;;;4.15;1.20;;;20.00;99.90;;;;;;5079963;28;20044;-87
2022/06/14 08:43:07;;;;;;;4.53;1.50;;;20.30;99.90;;;;;;5097733;28;20110;-88
2022/06/14 08:46:11;;;;;;;3.15;1.42;;;20.00;99.90;;;;;;5090487;28;20065;-89
2022/06/14 08:49:32;;;;;;;2.45;1.13;;;20.40;99.90;;;;;;5088449;28;20051;-87
2022/06/14 08:52:22;;;;;;;3.33;1.20;;;20.60;99.90;;;;;;5092230;28;20055;-88
2022/06/14 08:55:33;;;;;;;3.13;1.50;;;20.90;99.90;;;;;;5104249;28;20075;-88
2022/06/14 08:58:26;;;;;;;2.78;1.08;;;21.00;99.90;;;;;;5087374;28;20089;-87
2022/06/14 09:01:07;;;;;;;3.97;1.25;;;21.20;99.90;;;;;;5092488;28;20050;-86
2022/06/14 09:03:54;;;;;;;2.85;0.80;;;21.40;99.90;;;;;;5087244;28;20052;-88
2022/06/14 09:06:35;;;;;;;2.90;1.15;;;21.50;99.90;;;;;;5088743;28;20507;-88
2022/06/14 09:09:29;;;;;;;1.98;0.90;;;21.70;99.90;;;;;;5086880;28;20043;-87
2022/06/14 09:12:27;;;;;;;3.03;1.27;;;21.70;99.90;;;;;;5090736;28;20168;-87
2022/06/14 09:15:05;;;;;;;4.18;1.23;;;21.90;99.90;;;;;;5086977;28;20047;-87
2022/06/14 09:17:55;;;;;;;4.35;1.13;;;22.00;99.90;;;;;;5087896;28;20135;-87
2022/06/14 09:20:36;;;;;;;4.00;1.33;;;22.10;99.90;;;;;;5084633;28;20112;-87
2022/06/14 09:23:34;;;;;;;2.25;1.15;;;22.30;99.90;;;;;;5088895;28;20048;-87
2022/06/14 09:26:28;;;;;;;4.70;1.23;;;22.60;99.90;;;;;;5087679;28;20055;-86
2022/06/14 09:29:23;;;;;;;4.50;1.30;;;22.60;99.90;;;;;;5092024;28;20044;-85
2022/06/14 09:32:36;;;;;;;;;;;;;;;;;;;;;
2022/06/14 09:35:50;;;;;;;;;;;;;;;;;;;;;
2022/06/14 09:38:37;;;;;;;4.82;1.30;;;22.20;99.90;;;;;;5094156;28;20051;-87
2022/06/14 09:41:26;;;;;;;3.80;1.42;;;22.20;99.90;;;;;;5108983;28;20051;-87
2022/06/14 09:43:58;;;;;;;;;;;22.30;99.90;;;;;;5090773;28;20047;-87
2022/06/14 09:46:39;;;;;;;3.95;1.20;;;22.20;99.90;;;;;;5088476;28;19935;-86
2022/06/14 09:49:43;;;;;;;4.88;1.48;;;22.30;99.90;;;;;;5092324;28;20510;-87
2022/06/14 09:52:44;;;;;;;3.55;1.27;;;22.40;99.90;;;;;;5087116;28;20059;-87
2022/06/14 09:55:36;;;;;;;2.85;1.30;;;22.40;99.90;;;;;;5105007;28;20127;-87
2022/06/14 09:58:41;;;;;;;5.20;1.42;;;22.60;99.90;;;;;;5086892;28;20047;-88
2022/06/14 10:01:22;;;;;;;4.68;1.38;;;22.40;99.90;;;;;;5085599;28;20504;-87
2022/06/14 10:04:05;;;;;;;4.18;1.23;;;22.50;99.90;;;;;;5084979;28;20079;-86
2022/06/14 10:06:31;;;;;;;2.13;1.08;;;22.60;99.90;;;;;;5085653;28;20058;-87
2022/06/14 10:09:17;;;;;;;2.80;1.00;;;22.70;99.50;;;;;;5105677;28;20040;-86
2022/06/14 10:11:51;;;;;;;3.45;1.00;;;22.60;99.20;;;;;;5091917;28;20069;-87
2022/06/14 10:14:38;;;;;;;1.65;0.90;;;22.70;98.80;;;;;;5085809;28;20549;-86
2022/06/14 10:17:16;;;;;;;3.03;1.20;;;22.60;99.10;;;;;;5089610;28;20066;-86
2022/06/14 10:19:44;;;;;;;2.70;0.90;;;22.70;98.80;;;;;;5093379;28;20055;-86
2022/06/14 10:22:22;;;;;;;2.88;0.98;;;22.40;98.90;;;;;;5091157;28;20135;-86
2022/06/14 10:25:10;;;;;;;3.45;1.25;;;22.90;98.80;;;;;;5086689;28;20099;-87
2022/06/14 10:28:12;;;;;;;3.90;1.10;;;23.10;98.60;;;;;;5124649;27;20404;-86
2022/06/14 10:31:03;;;;;;;2.97;1.17;;;23.40;98.20;;;;;;5091145;28;20048;-87
2022/06/14 10:33:48;;;;;;;4.05;1.20;;;23.40;98.30;;;;;;5092895;28;20054;-87
2022/06/14 10:36:23;;;;;;;2.40;1.10;;;23.40;98.40;;;;;;5109202;28;20083;-86
2022/06/14 10:39:06;;;;;;;3.13;1.13;;;23.40;98.00;;;;;;5121448;27;20040;-86
2022/06/14 10:41:39;;;;;;;3.83;1.10;;;23.40;97.40;;;;;;5107292;28;20417;-87
2022/06/14 10:44:15;;;;;;;;;;;;;;;;;;;;;
2022/06/14 10:46:48;;;;;;;1.50;0.90;;;23.30;98.10;;;;;;5106208;28;20055;-87
2022/06/14 10:49:46;;;;;;;3.20;1.08;;;23.60;98.10;;;;;;5086495;28;20052;-87
2022/06/14 10:52:43;;;;;;;3.20;1.08;;;23.90;98.10;;;;;;5074347;28;20101;-88
2022/06/14 10:55:25;;;;;;;2.97;1.38;;;23.90;97.50;;;;;;5084084;28;20048;-87
2022/06/14 10:58:21;;;;;;;3.47;1.25;;;23.90;97.40;;;;;;5087759;28;20062;-87
2022/06/14 11:01:24;;;;;;;4.65;1.20;;;23.70;97.30;;;;;;5085404;28;20458;-88
2022/06/14 11:04:08;;;;;;;2.35;1.20;;;23.40;97.30;;;;;;5118121;28;20040;-87
2022/06/14 11:06:58;;;;;;;4.32;1.15;;;23.70;97.80;;;;;;5103421;28;20048;-87
2022/06/14 11:09:48;;;;;;;2.75;1.10;;;23.70;96.70;;;;;;5104874;28;20729;-87
2022/06/14 11:12:34;;;;;;;3.67;1.20;;;23.70;96.90;;;;;;5090166;28;20419;-86
2022/06/14 11:15:16;;;;;;;4.63;1.52;;;23.60;97.30;;;;;;5089082;28;20561;-86
2022/06/14 11:18:06;;;;;;;3.35;1.00;;;23.70;97.40;;;;;;5091654;28;20083;-86
2022/06/14 11:20:54;;;;;;;2.97;1.23;;;23.70;97.00;;;;;;5086525;28;20047;-87
2022/06/14 11:23:20;;;;;;;2.63;1.05;;;23.50;96.80;;;;;;5087464;28;20473;-87
2022/06/14 11:26:26;;;;;;;2.47;1.08;;;23.70;97.10;;;;;;5103712;28;20048;-87
2022/06/14 11:29:13;;;;;;;3.47;1.30;;;23.70;96.90;;;;;;5086483;28;20063;-86
2022/06/14 11:31:49;;;;;;;3.03;1.17;;;23.60;97.00;;;;;;5082526;28;20051;-86
2022/06/14 11:34:21;;;;;;;4.10;1.35;;;23.70;97.20;;;;;;5087033;28;20039;-87
2022/06/14 11:37:18;;;;;;;3.38;1.20;;;23.50;96.80;;;;;;5085786;28;20615;-85
2022/06/14 11:39:58;;;;;;;3.47;1.40;;;23.30;96.80;;;;;;5083035;28;20043;-85
2022/06/14 11:42:31;;;;;;;3.53;1.23;;;23.50;97.20;;;;;;5091770;28;20060;-85
2022/06/14 11:45:12;;;;;;;4.15;1.25;;;23.60;97.20;;;;;;5095104;28;20114;-85
2022/06/14 11:48:19;;;;;;;3.17;1.20;;;23.80;97.10;;;;;;5090735;28;20048;-85
2022/06/14 11:51:08;;;;;;;3.92;1.10;;;24.00;96.60;;;;;;5089898;28;20040;-86
2022/06/14 11:54:10;;;;;;;3.63;1.25;;;24.20;96.60;;;;;;5093328;28;20055;-85
2022/06/14 11:56:52;;;;;;;2.25;0.90;;;24.60;96.20;;;;;;5109702;28;20367;-86
2022/06/14 11:59:47;;;;;;;2.72;1.02;;;24.60;95.60;;;;;;5092704;28;20051;-86
2022/06/14 12:02:36;;;;;;;3.95;1.27;;;24.90;95.90;;;;;;5106830;28;20058;-85
2022/06/14 12:05:21;;;;;;;2.78;1.10;;;24.90;95.20;;;;;;5089430;28;20040;-86
2022/06/14 12:08:11;;;;;;;3.70;1.20;;;24.80;94.70;;;;;;5086332;28;20044;-86
2022/06/14 12:11:02;;;;;;;3.33;1.00;;;24.90;94.80;;;;;;5107107;28;20047;-86
2022/06/14 12:13:36;;;;;;;2.50;1.23;;;24.70;93.60;;;;;;5089789;28;20044;-87
2022/06/14 12:16:11;;;;;;;5.50;1.45;;;24.70;94.00;;;;;;5092541;28;20146;-86
2022/06/14 12:18:42;;;;;;;3.40;1.20;;;24.90;93.90;;;;;;5103159;28;20047;-87
2022/06/14 12:21:21;;;;;;;3.10;1.42;;;25.00;93.20;;;;;;5108906;28;20048;-86
2022/06/14 12:23:52;;;;;;;3.20;1.27;;;25.40;93.00;;;;;;5103436;28;20043;-86
2022/06/14 12:26:45;;;;;;;2.88;1.15;;;25.40;92.50;;;;;;5083562;28;20044;-87
2022/06/14 12:29:26;;;;;;;3.42;1.20;;;25.00;91.70;;;;;;5078704;28;20504;-86
2022/06/14 12:32:10;;;;;;;2.47;1.20;;;25.20;92.30;;;;;;5088650;28;20083;-87
2022/06/14 12:35:14;;;;;;;2.80;1.27;;;25.10;91.90;;;;;;5088664;28;20047;-86
2022/06/14 12:38:01;;;;;;;2.22;1.05;;;24.90;91.10;;;;;;5086921;28;20306;-85
2022/06/14 12:40:37;;;;;;;3.90;1.10;;;24.80;91.20;;;;;;5095559;28;20471;-86
2022/06/14 12:43:08;;;;;;;;;;;25.00;91.20;;;;;;5109318;28;20506;-86
2022/06/14 12:45:40;;;;;;;3.78;1.23;;;25.20;91.30;;;;;;5104702;28;20381;-86
2022/06/14 12:48:24;;;;;;;3.17;1.10;;;25.30;91.30;;;;;;5107667;28;20058;-87
2022/06/14 12:50:57;;;;;;;2.17;0.95;;;25.60;91.20;;;;;;5090732;28;20050;-87
2022/06/14 12:53:55;;;;;;;2.30;1.00;;;25.80;91.20;;;;;;5090999;28;20169;-88
2022/06/14 12:56:27;;;;;;;4.00;1.10;;;25.90;90.20;;;;;;5075907;28;20055;-86
2022/06/14 12:59:26;;;;;;;3.10;1.17;;;26.20;90.90;;;;;;5086827;28;20044;-86
2022/06/14 13:02:32;;;;;;;3.30;1.02;;;26.00;90.40;;;;;;5090694;28;20499;-86
2022/06/14 13:05:25;;;;;;;5.05;1.48;;;26.10;88.90;;;;;;5096844;28;20071;-86
2022/06/14 13:08:22;;;;;;;3.17;1.35;;;25.80;89.90;;;;;;5093324;28;20047;-86
2022/06/14 13:11:03;;;;;;;3.20;1.50;;;25.90;90.20;;;;;;5101986;27;20051;-86
2022/06/14 13:13:55;;;;;;;2.83;1.20;;;25.50;88.10;;;;;;5091038;28;20040;-86
2022/06/14 13:16:39;;;;;;;4.18;1.20;;;25.20;89.70;;;;;;5109683;28;20035;-86
2022/06/14 13:19:14;;;;;;;3.47;1.13;;;24.90;90.00;;;;;;5089833;28;20484;-87
2022/06/14 13:21:51;;;;;;;2.58;0.98;;;25.10;90.60;;;;;;5107471;28;20044;-86
2022/06/14 13:24:26;;;;;;;3.58;1.00;;;24.90;90.30;;;;;;5088019;28;20488;-86
2022/06/14 13:27:17;;;;;;;2.65;1.00;;;24.90;90.40;;;;;;5088040;28;20039;-86
2022/06/14 13:29:43;;;;;;;2.80;1.17;;;24.80;90.30;;;;;;5107886;28;20489;-87
2022/06/14 13:32:34;;;;;;;2.35;1.30;;;24.60;88.70;;;;;;5110840;28;20097;-88
2022/06/14 13:35:36;;;;;;;3.35;1.30;;;24.40;88.60;;;;;;5098604;28;20066;-86
2022/06/14 13:38:09;;;;;;;3.95;1.20;;;24.20;88.30;;;;;;5089829;28;20560;-87
2022/06/14 13:40:54;;;;;;;3.28;1.00;;;24.30;90.00;;;;;;5085825;28;20047;-86
2022/06/14 13:43:33;;;;;;;3.13;1.20;;;24.10;90.00;;;;;;5108456;28;20051;-86
2022/06/14 13:46:16;;;;;;;3.17;1.00;;;24.20;90.30;;;;;;5090965;28;20218;-86
2022/06/14 13:48:54;;;;;;;3.03;1.37;;;24.10;90.80;;;;;;5091184;28;20507;-86
2022/06/14 13:52:12;;;;;;;2.85;0.90;;;24.00;90.00;;;;;;5085040;28;20040;-86
2022/06/14 13:54:46;;;;;;;3.00;1.30;;;24.00;90.00;;;;;;5046338;28;20049;-88
2022/06/14 13:57:34;;;;;;;3.87;1.03;;;24.10;90.40;;;;;;5106755;28;20058;-86
2022/06/14 14:00:30;;;;;;;3.17;1.23;;;24.10;90.20;;;;;;5085874;28;20051;-86
2022/06/14 14:03:53;;;;;;;2.87;1.30;;;24.00;91.00;;;;;;5089922;28;20043;-85
2022/06/14 14:06:36;;;;;;;2.70;1.00;;;23.70;90.70;;;;;;5099644;28;20047;-86
2022/06/14 14:09:24;;;;;;;4.40;1.40;;;23.40;91.40;;;;;;5108914;28;20132;-86
2022/06/14 14:12:14;;;;;;;2.05;1.00;;;23.30;91.80;;;;;;5090867;28;20043;-85
2022/06/14 14:14:55;;;;;;;3.92;1.10;;;23.40;92.20;;;;;;5089732;28;20091;-87
2022/06/14 14:17:59;;;;;;;2.55;1.10;;;23.30;92.00;;;;;;5088910;28;20059;-86
2022/06/14 14:20:31;;;;;;;2.38;1.00;;;23.40;92.30;;;;;;5090938;28;20043;-86
2022/06/14 14:23:24;;;;;;;2.63;1.20;;;23.40;92.10;;;;;;5105343;28;20109;-87